createdAt,value
2023-03-05T00:02:21.115Z,22.95
2023-03-05T00:04:47.581Z,22.91
2023-03-05T00:07:14.360Z,22.92
2023-03-05T00:09:40.761Z,22.88
2023-03-05T00:12:07.703Z,22.88
2023-03-05T00:14:34.097Z,22.87
2023-03-05T00:17:00.524Z,22.87
2023-03-05T00:19:26.993Z,22.84
2023-03-05T00:21:53.513Z,22.86
2023-03-05T00:24:19.949Z,22.83
2023-03-05T00:26:46.436Z,22.81
2023-03-05T00:29:14.672Z,22.83
2023-03-05T00:31:41.194Z,22.80
2023-03-05T00:34:08.536Z,22.78
2023-03-05T00:36:35.225Z,22.80
2023-03-05T00:39:01.669Z,22.76
2023-03-05T00:41:28.065Z,22.80
2023-03-05T00:43:54.502Z,22.76
2023-03-05T00:46:20.987Z,22.74
2023-03-05T00:48:47.455Z,22.73
2023-03-05T00:51:13.953Z,22.72
2023-03-05T00:53:40.338Z,22.72
2023-03-05T00:56:07.016Z,22.73
2023-03-05T00:58:33.417Z,22.74
2023-03-05T01:01:00.367Z,22.71
2023-03-05T01:03:26.974Z,22.71
2023-03-05T01:05:53.388Z,22.67
2023-03-05T01:08:20.055Z,22.72
2023-03-05T01:10:46.470Z,22.67
2023-03-05T01:13:12.858Z,22.67
2023-03-05T01:15:39.249Z,22.65
2023-03-05T01:18:05.648Z,22.68
2023-03-05T01:20:32.046Z,22.63
2023-03-05T01:22:59.237Z,22.65
2023-03-05T01:25:25.699Z,22.64
2023-03-05T01:27:52.680Z,22.62
2023-03-05T01:30:19.214Z,22.63
2023-03-05T01:32:45.650Z,22.65
2023-03-05T01:35:15.955Z,22.63
2023-03-05T01:37:42.377Z,22.62
2023-03-05T01:40:10.280Z,22.57
2023-03-05T01:42:36.666Z,22.63
2023-03-05T01:45:10.369Z,22.57
2023-03-05T01:47:36.970Z,22.55
2023-03-05T01:50:03.938Z,22.58
2023-03-05T01:52:30.338Z,22.61
2023-03-05T01:54:57.536Z,22.56
2023-03-05T01:57:36.616Z,22.59
2023-03-05T02:00:06.141Z,22.56
2023-03-05T02:02:32.767Z,22.56
2023-03-05T02:05:00.786Z,22.58
2023-03-05T02:07:27.191Z,22.53
2023-03-05T02:09:53.632Z,22.54
2023-03-05T02:12:20.126Z,22.55
2023-03-05T02:14:47.127Z,22.48
2023-03-05T02:17:13.620Z,22.51
2023-03-05T02:19:53.479Z,22.50
2023-03-05T02:22:20.397Z,22.50
2023-03-05T02:24:46.872Z,22.49
2023-03-05T02:27:13.289Z,22.49
2023-03-05T02:29:41.178Z,22.49
2023-03-05T02:32:08.665Z,22.51
2023-03-05T02:34:35.607Z,22.51
2023-03-05T02:37:04.522Z,22.46
2023-03-05T02:39:31.455Z,22.43
2023-03-05T02:41:57.871Z,22.43
2023-03-05T02:44:24.317Z,22.41
2023-03-05T02:46:51.899Z,22.43
2023-03-05T02:49:18.651Z,22.42
2023-03-05T02:51:45.170Z,22.44
2023-03-05T02:54:11.810Z,22.42
2023-03-05T02:56:40.743Z,22.40
2023-03-05T02:59:07.163Z,22.42
2023-03-05T03:01:33.616Z,22.45
2023-03-05T03:04:00.091Z,22.56
2023-03-05T03:06:26.540Z,22.62
2023-03-05T03:08:52.945Z,22.68
2023-03-05T03:11:19.390Z,22.79
2023-03-05T03:13:45.832Z,22.85
2023-03-05T03:16:13.190Z,22.94
2023-03-05T03:18:39.677Z,23.04
2023-03-05T03:21:06.061Z,23.12
2023-03-05T03:23:32.495Z,23.17
2023-03-05T03:25:58.954Z,23.25
2023-03-05T03:28:25.465Z,23.29
2023-03-05T03:30:51.910Z,23.37
2023-03-05T03:33:18.449Z,23.44
2023-03-05T03:35:45.781Z,23.49
2023-03-05T03:38:13.845Z,23.54
2023-03-05T03:40:41.669Z,23.57
2023-03-05T03:43:08.165Z,23.61
2023-03-05T03:45:34.576Z,23.62
2023-03-05T03:48:01.023Z,23.68
2023-03-05T03:50:27.423Z,23.67
2023-03-05T03:52:53.862Z,23.77
2023-03-05T03:55:20.249Z,23.83
2023-03-05T03:57:46.741Z,23.83
2023-03-05T04:00:13.345Z,23.84
2023-03-05T04:02:39.858Z,23.84
2023-03-05T04:05:06.692Z,23.84
2023-03-05T04:07:33.102Z,23.84
2023-03-05T04:09:59.521Z,23.75
2023-03-05T04:12:25.928Z,23.67
2023-03-05T04:14:52.301Z,23.55
2023-03-05T04:17:18.727Z,23.41
2023-03-05T04:19:45.162Z,23.18
2023-03-05T04:22:12.108Z,22.93
2023-03-05T04:24:38.778Z,22.69
2023-03-05T04:27:05.499Z,22.48
2023-03-05T04:29:32.306Z,22.27
2023-03-05T04:31:58.725Z,22.19
2023-03-05T04:34:25.170Z,22.09
2023-03-05T04:36:51.559Z,22.05
2023-03-05T04:39:17.998Z,22.01
2023-03-05T04:41:44.465Z,22.02
2023-03-05T04:44:10.894Z,21.97
2023-03-05T04:46:37.336Z,21.98
2023-03-05T04:49:03.784Z,21.93
2023-03-05T04:51:30.238Z,21.93
2023-03-05T04:53:56.653Z,21.95
2023-03-05T04:56:23.068Z,21.94
2023-03-05T04:58:49.516Z,21.97
2023-03-05T05:01:15.920Z,22.02
2023-03-05T05:03:42.349Z,22.06
2023-03-05T05:06:08.763Z,22.18
2023-03-05T05:08:35.268Z,22.20
2023-03-05T05:11:02.736Z,22.29
2023-03-05T05:13:29.203Z,22.36
2023-03-05T05:15:55.704Z,22.41
2023-03-05T05:18:22.175Z,22.54
2023-03-05T05:20:48.657Z,22.59
2023-03-05T05:23:15.135Z,22.67
2023-03-05T05:25:43.121Z,22.77
2023-03-05T05:28:10.194Z,22.85
2023-03-05T05:30:36.614Z,22.94
2023-03-05T05:33:03.060Z,23.04
2023-03-05T05:35:29.590Z,23.08
2023-03-05T05:37:56.118Z,23.14
2023-03-05T05:40:22.686Z,23.20
2023-03-05T05:42:49.163Z,23.24
2023-03-05T05:45:15.658Z,23.27
2023-03-05T05:47:42.098Z,23.32
2023-03-05T05:50:08.917Z,23.34
2023-03-05T05:52:35.341Z,23.34
2023-03-05T05:55:01.796Z,23.40
2023-03-05T05:57:28.254Z,23.40
2023-03-05T05:59:54.683Z,23.42
2023-03-05T06:02:21.153Z,23.43
2023-03-05T06:04:47.596Z,23.48
2023-03-05T06:07:14.005Z,23.47
2023-03-05T06:09:40.422Z,23.47
2023-03-05T06:12:07.257Z,23.53
2023-03-05T06:14:33.712Z,23.52
2023-03-05T06:17:00.125Z,23.55
2023-03-05T06:19:26.976Z,23.51
2023-03-05T06:21:53.362Z,23.57
2023-03-05T06:24:19.948Z,23.57
2023-03-05T06:26:48.568Z,23.55
2023-03-05T06:29:15.223Z,23.55
2023-03-05T06:31:41.637Z,23.58
2023-03-05T06:34:08.046Z,23.57
2023-03-05T06:36:34.478Z,23.53
2023-03-05T06:39:00.944Z,23.56
2023-03-05T06:41:28.310Z,23.54
2023-03-05T06:43:55.024Z,23.55
2023-03-05T06:46:26.837Z,23.50
2023-03-05T06:48:54.738Z,23.51
2023-03-05T06:51:26.908Z,23.52
2023-03-05T06:53:53.456Z,23.50
2023-03-05T06:56:19.889Z,23.50
2023-03-05T06:58:49.718Z,23.50
2023-03-05T07:01:16.452Z,23.47
2023-03-05T07:03:43.171Z,23.47
2023-03-05T07:06:13.232Z,23.47
2023-03-05T07:08:45.856Z,23.50
2023-03-05T07:11:16.238Z,23.46
2023-03-05T07:13:43.615Z,23.48
2023-03-05T07:16:10.762Z,23.46
2023-03-05T07:18:43.308Z,23.45
2023-03-05T07:21:15.216Z,23.50
2023-03-05T07:23:41.639Z,23.49
2023-03-05T07:26:08.144Z,23.46
2023-03-05T07:28:34.775Z,23.46
2023-03-05T07:31:02.445Z,23.49
2023-03-05T07:33:29.018Z,23.45
2023-03-05T07:35:55.476Z,23.46
2023-03-05T07:38:22.065Z,23.45
2023-03-05T07:40:51.646Z,23.46
2023-03-05T07:43:18.083Z,23.48
2023-03-05T07:45:44.801Z,23.50
2023-03-05T07:48:15.699Z,23.50
2023-03-05T07:50:42.247Z,23.51
2023-03-05T07:53:09.174Z,23.50
2023-03-05T07:55:35.674Z,23.49
2023-03-05T07:58:02.091Z,23.51
2023-03-05T08:00:28.489Z,23.50
2023-03-05T08:02:54.988Z,23.51
2023-03-05T08:05:21.459Z,23.52
2023-03-05T08:07:47.898Z,23.51
2023-03-05T08:10:14.326Z,23.51
2023-03-05T08:12:40.709Z,23.50
2023-03-05T08:15:07.516Z,23.51
2023-03-05T08:17:36.538Z,23.51
2023-03-05T08:20:10.542Z,23.49
2023-03-05T08:22:37.484Z,23.49
2023-03-05T08:25:09.332Z,23.54
2023-03-05T08:27:38.285Z,23.54
2023-03-05T08:30:05.062Z,23.54
2023-03-05T08:32:31.514Z,23.52
2023-03-05T08:35:03.355Z,23.57
2023-03-05T08:37:29.801Z,23.55
2023-03-05T08:39:58.295Z,23.56
2023-03-05T08:42:24.823Z,23.57
2023-03-05T08:45:04.526Z,23.55
2023-03-05T08:47:33.779Z,23.54
2023-03-05T08:50:00.246Z,23.58
2023-03-05T08:52:27.495Z,23.57
2023-03-05T08:54:53.978Z,23.61
2023-03-05T08:57:20.418Z,23.56
2023-03-05T08:59:47.052Z,23.61
2023-03-05T09:02:13.526Z,23.58
2023-03-05T09:04:40.016Z,23.63
2023-03-05T09:07:06.643Z,23.65
2023-03-05T09:09:33.164Z,23.65
2023-03-05T09:12:00.004Z,23.65
2023-03-05T09:14:28.432Z,23.67
2023-03-05T09:16:55.576Z,23.65
2023-03-05T09:19:21.993Z,23.68
2023-03-05T09:21:48.402Z,23.65
2023-03-05T09:24:14.810Z,23.65
2023-03-05T09:26:42.329Z,23.63
2023-03-05T09:29:09.049Z,23.68
2023-03-05T09:31:40.859Z,23.69
2023-03-05T09:34:08.291Z,23.59
2023-03-05T09:36:34.757Z,23.68
2023-03-05T09:39:01.218Z,23.69
2023-03-05T09:41:37.820Z,23.68
2023-03-05T09:44:23.739Z,23.75
2023-03-05T09:46:50.146Z,23.73
2023-03-05T09:49:35.547Z,23.76
2023-03-05T09:52:03.513Z,23.79
2023-03-05T09:54:33.456Z,23.78
2023-03-05T09:57:01.298Z,23.80
2023-03-05T09:59:30.810Z,23.82
2023-03-05T10:02:01.581Z,23.82
2023-03-05T10:04:44.071Z,23.80
2023-03-05T10:07:25.241Z,23.86
2023-03-05T10:10:04.560Z,23.79
2023-03-05T10:12:47.031Z,23.81
2023-03-05T10:15:32.202Z,23.81
2023-03-05T10:18:33.502Z,23.82
2023-03-05T10:21:01.516Z,23.82
2023-03-05T10:23:37.596Z,23.83
2023-03-05T10:26:06.745Z,23.83
2023-03-05T10:28:48.565Z,23.81
2023-03-05T10:31:38.482Z,23.82
2023-03-05T10:34:08.197Z,23.85
2023-03-05T10:37:07.536Z,23.88
2023-03-05T10:39:49.704Z,23.90
2023-03-05T10:42:34.066Z,23.89
2023-03-05T10:45:03.344Z,23.90
2023-03-05T10:48:01.977Z,23.93
2023-03-05T10:50:43.333Z,23.91
2023-03-05T10:53:46.100Z,23.89
2023-03-05T10:56:14.973Z,23.92
2023-03-05T10:58:41.571Z,23.89
2023-03-05T11:01:10.944Z,23.90
2023-03-05T11:03:51.375Z,23.91
2023-03-05T11:06:43.076Z,23.90
2023-03-05T11:10:02.418Z,23.89
2023-03-05T11:12:36.214Z,23.92
2023-03-05T11:15:16.454Z,23.90
2023-03-05T11:17:48.501Z,23.89
2023-03-05T11:20:27.210Z,23.87
2023-03-05T11:23:12.276Z,23.88
2023-03-05T11:26:01.395Z,23.86
2023-03-05T11:28:38.995Z,23.87
2023-03-05T11:31:18.220Z,23.84
2023-03-05T11:33:54.461Z,23.86
2023-03-05T11:36:32.136Z,23.82
2023-03-05T11:39:08.580Z,23.81
2023-03-05T11:42:01.655Z,23.82
2023-03-05T11:44:51.146Z,23.86
2023-03-05T11:47:32.882Z,23.80
2023-03-05T11:50:15.783Z,23.80
2023-03-05T11:52:46.337Z,23.80
2023-03-05T11:55:14.644Z,23.79
2023-03-05T11:58:05.363Z,23.80
2023-03-05T12:00:32.923Z,23.79
2023-03-05T12:03:00.855Z,23.80
2023-03-05T12:05:28.475Z,23.75
2023-03-05T12:07:57.137Z,23.78
2023-03-05T12:10:24.623Z,23.73
2023-03-05T12:13:30.284Z,23.72
2023-03-05T12:16:24.308Z,23.72
2023-03-05T12:18:53.861Z,23.71
2023-03-05T12:21:26.117Z,23.70
2023-03-05T12:23:55.302Z,23.70
2023-03-05T12:26:52.728Z,23.71
2023-03-05T12:29:36.472Z,23.70
2023-03-05T12:32:23.153Z,23.70
2023-03-05T12:35:00.022Z,23.71
2023-03-05T12:37:27.257Z,23.70
2023-03-05T12:40:01.066Z,23.67
2023-03-05T12:42:30.728Z,23.69
2023-03-05T12:45:16.162Z,23.66
2023-03-05T12:47:46.725Z,23.67
2023-03-05T12:50:28.602Z,23.63
2023-03-05T12:53:04.337Z,23.64
2023-03-05T12:55:45.970Z,23.62
2023-03-05T12:58:31.652Z,23.61
2023-03-05T13:01:07.291Z,23.59
2023-03-05T13:03:35.418Z,23.58
2023-03-05T13:06:04.998Z,23.57
2023-03-05T13:08:32.637Z,23.55
2023-03-05T13:11:00.885Z,23.61
2023-03-05T13:13:28.964Z,23.59
2023-03-05T13:15:55.749Z,23.58
2023-03-05T13:18:24.876Z,23.58
2023-03-05T13:21:02.656Z,23.58
2023-03-05T13:23:29.361Z,23.56
2023-03-05T13:26:00.579Z,23.57
2023-03-05T13:28:27.501Z,23.55
2023-03-05T13:31:10.646Z,23.56
2023-03-05T13:33:37.437Z,23.57
2023-03-05T13:36:04.648Z,23.56
2023-03-05T13:38:33.622Z,23.57
2023-03-05T13:41:09.005Z,23.57
2023-03-05T13:43:42.989Z,23.57
2023-03-05T13:46:09.735Z,23.54
2023-03-05T13:48:36.389Z,23.57
2023-03-05T13:51:06.898Z,23.57
2023-03-05T13:53:33.830Z,23.54
2023-03-05T13:56:01.176Z,23.54
2023-03-05T13:58:49.323Z,23.56
2023-03-05T14:01:38.456Z,23.58
2023-03-05T14:04:14.071Z,23.59
2023-03-05T14:06:58.295Z,23.59
2023-03-05T14:09:37.235Z,23.59
2023-03-05T14:12:07.564Z,23.60
2023-03-05T14:14:35.489Z,23.57
2023-03-05T14:17:30.312Z,23.59
2023-03-05T14:20:09.923Z,23.59
2023-03-05T14:22:38.116Z,23.63
2023-03-05T14:25:05.817Z,23.55
2023-03-05T14:27:34.652Z,23.58
2023-03-05T14:30:01.518Z,23.58
2023-03-05T14:32:37.529Z,23.56
2023-03-05T14:35:05.351Z,23.55
2023-03-05T14:37:42.170Z,23.55
2023-03-05T14:40:12.322Z,23.56
2023-03-05T14:42:55.397Z,23.54
2023-03-05T14:45:23.563Z,23.55
2023-03-05T14:47:50.862Z,23.52
2023-03-05T14:50:38.390Z,23.53
2023-03-05T14:53:09.774Z,23.52
2023-03-05T14:55:38.233Z,23.52
2023-03-05T14:58:10.895Z,23.53
2023-03-05T15:00:37.457Z,23.52
2023-03-05T15:03:04.099Z,23.49
2023-03-05T15:05:30.707Z,23.50
2023-03-05T15:07:57.334Z,23.48
2023-03-05T15:10:24.766Z,23.50
2023-03-05T15:12:53.169Z,23.49
2023-03-05T15:15:20.473Z,23.46
2023-03-05T15:17:55.093Z,23.46
2023-03-05T15:20:26.608Z,23.47
2023-03-05T15:22:53.437Z,23.46
2023-03-05T15:25:21.230Z,23.47
2023-03-05T15:27:47.860Z,23.45
2023-03-05T15:30:26.129Z,23.46
2023-03-05T15:32:53.430Z,23.45
2023-03-05T15:35:20.270Z,23.45
2023-03-05T15:37:46.882Z,23.42
2023-03-05T15:40:13.741Z,23.40
2023-03-05T15:42:40.427Z,23.42
2023-03-05T15:45:07.480Z,23.37
2023-03-05T15:47:34.188Z,23.37
2023-03-05T15:50:00.851Z,23.37
2023-03-05T15:52:27.474Z,23.38
2023-03-05T15:54:54.074Z,23.35
2023-03-05T15:57:23.721Z,23.34
2023-03-05T15:59:50.350Z,23.34
2023-03-05T16:02:17.084Z,23.34
2023-03-05T16:04:43.715Z,23.32
2023-03-05T16:07:10.333Z,23.30
2023-03-05T16:09:38.756Z,23.27
2023-03-05T16:12:07.970Z,23.30
2023-03-05T16:14:34.585Z,23.25
2023-03-05T16:17:03.235Z,23.28
2023-03-05T16:19:30.536Z,23.28
2023-03-05T16:21:57.117Z,23.28
2023-03-05T16:24:23.704Z,23.28
2023-03-05T16:26:50.309Z,23.30
2023-03-05T16:29:16.942Z,23.27
2023-03-05T16:31:45.327Z,23.25
2023-03-05T16:34:14.105Z,23.24
2023-03-05T16:36:41.212Z,23.20
2023-03-05T16:39:07.866Z,23.20
2023-03-05T16:41:34.526Z,23.20
2023-03-05T16:44:01.147Z,23.18
2023-03-05T16:46:29.334Z,23.18
2023-03-05T16:48:56.041Z,23.14
2023-03-05T16:51:22.687Z,23.12
2023-03-05T16:53:49.427Z,23.13
2023-03-05T16:56:16.097Z,23.13
2023-03-05T16:58:42.826Z,23.07
2023-03-05T17:01:16.591Z,23.07
2023-03-05T17:03:44.077Z,23.06
2023-03-05T17:06:21.825Z,23.04
2023-03-05T17:08:48.750Z,23.02
2023-03-05T17:11:15.573Z,23.00
2023-03-05T17:13:42.318Z,22.96
2023-03-05T17:16:09.658Z,22.95
2023-03-05T17:18:36.455Z,22.96
2023-03-05T17:21:03.554Z,22.91
2023-03-05T17:23:34.279Z,22.88
2023-03-05T17:26:04.499Z,22.87
2023-03-05T17:28:31.102Z,22.84
2023-03-05T17:31:00.176Z,22.84
2023-03-05T17:33:28.667Z,22.81
2023-03-05T17:35:55.529Z,22.81
2023-03-05T17:38:22.317Z,22.79
2023-03-05T17:40:49.398Z,22.77
2023-03-05T17:43:16.028Z,22.74
2023-03-05T17:45:42.728Z,22.69
2023-03-05T17:48:10.536Z,22.69
2023-03-05T17:50:37.121Z,22.73
2023-03-05T17:53:04.159Z,22.68
2023-03-05T17:55:30.876Z,22.70
2023-03-05T17:57:57.541Z,22.66
2023-03-05T18:00:25.525Z,22.66
2023-03-05T18:02:52.376Z,22.66
2023-03-05T18:05:20.171Z,22.63
2023-03-05T18:07:46.961Z,22.63
2023-03-05T18:10:14.113Z,22.63
2023-03-05T18:12:40.917Z,22.60
2023-03-05T18:15:09.896Z,22.62
2023-03-05T18:17:36.546Z,22.60
2023-03-05T18:20:04.289Z,22.62
2023-03-05T18:22:31.370Z,22.54
2023-03-05T18:24:58.170Z,22.56
2023-03-05T18:27:25.299Z,22.55
2023-03-05T18:29:54.126Z,22.53
2023-03-05T18:32:22.310Z,22.52
2023-03-05T18:34:50.555Z,22.49
2023-03-05T18:37:17.356Z,22.49
2023-03-05T18:39:43.943Z,22.48
2023-03-05T18:42:13.723Z,22.47
2023-03-05T18:44:40.973Z,22.42
2023-03-05T18:47:07.613Z,22.47
2023-03-05T18:49:34.314Z,22.48
2023-03-05T18:52:01.507Z,22.46
2023-03-05T18:54:28.137Z,22.40
2023-03-05T18:56:54.776Z,22.39
2023-03-05T18:59:21.447Z,22.41
2023-03-05T19:01:48.059Z,22.40
2023-03-05T19:04:14.958Z,22.36
2023-03-05T19:06:44.065Z,22.37
2023-03-05T19:09:37.602Z,22.40
2023-03-05T19:12:04.459Z,22.32
2023-03-05T19:14:31.044Z,22.32
2023-03-05T19:16:57.680Z,22.32
2023-03-05T19:19:24.656Z,22.27
2023-03-05T19:22:00.587Z,22.31
2023-03-05T19:24:28.763Z,22.26
2023-03-05T19:26:56.125Z,22.25
2023-03-05T19:29:24.024Z,22.24
2023-03-05T19:31:51.166Z,22.26
2023-03-05T19:34:18.407Z,22.28
2023-03-05T19:36:45.061Z,22.24
2023-03-05T19:39:11.827Z,22.23
2023-03-05T19:41:38.505Z,22.20
2023-03-05T19:44:05.534Z,22.19
2023-03-05T19:46:32.270Z,22.20
2023-03-05T19:48:59.095Z,22.18
2023-03-05T19:51:25.962Z,22.16
2023-03-05T19:53:52.809Z,22.16
2023-03-05T19:56:19.578Z,22.14
2023-03-05T19:58:46.483Z,22.11
2023-03-05T20:01:18.729Z,22.10
2023-03-05T20:03:50.227Z,22.08
2023-03-05T20:06:17.161Z,22.09
2023-03-05T20:08:44.458Z,22.04
2023-03-05T20:11:11.991Z,22.04
2023-03-05T20:13:38.879Z,22.02
2023-03-05T20:16:06.576Z,22.03
2023-03-05T20:18:33.370Z,22.00
2023-03-05T20:21:03.423Z,22.03
2023-03-05T20:23:30.186Z,21.96
2023-03-05T20:25:59.945Z,21.99
2023-03-05T20:28:26.605Z,21.95
2023-03-05T20:30:54.858Z,21.93
2023-03-05T20:33:21.969Z,21.91
2023-03-05T20:35:48.723Z,21.89
2023-03-05T20:38:21.757Z,21.85
2023-03-05T20:40:49.046Z,21.85
2023-03-05T20:43:16.114Z,21.89
2023-03-05T20:45:42.721Z,21.84
2023-03-05T20:48:09.305Z,21.85
2023-03-05T20:50:35.975Z,21.81
2023-03-05T20:53:03.986Z,21.81
2023-03-05T20:55:30.941Z,21.79
2023-03-05T20:57:57.625Z,21.83
2023-03-05T21:00:24.623Z,21.80
2023-03-05T21:02:51.750Z,21.80
2023-03-05T21:05:20.192Z,21.79
2023-03-05T21:07:46.889Z,21.80
2023-03-05T21:10:14.259Z,21.75
2023-03-05T21:12:41.004Z,21.73
2023-03-05T21:15:08.093Z,21.76
2023-03-05T21:17:34.705Z,21.77
2023-03-05T21:20:01.313Z,21.73
2023-03-05T21:22:27.911Z,21.75
2023-03-05T21:25:22.152Z,21.73
2023-03-05T21:28:04.910Z,21.75
2023-03-05T21:30:39.643Z,21.72
2023-03-05T21:33:09.042Z,21.71
2023-03-05T21:35:35.958Z,21.72
2023-03-05T21:38:03.033Z,21.70
2023-03-05T21:40:29.802Z,21.75
2023-03-05T21:42:56.377Z,21.70
2023-03-05T21:45:25.156Z,21.73
2023-03-05T21:47:56.001Z,21.70
2023-03-05T21:50:23.415Z,21.71
2023-03-05T21:52:50.110Z,21.70
2023-03-05T21:55:18.628Z,21.71
2023-03-05T21:57:45.494Z,21.71
2023-03-05T22:00:12.772Z,21.73
2023-03-05T22:02:40.343Z,21.75
2023-03-05T22:05:07.874Z,21.71
2023-03-05T22:07:34.508Z,21.72
2023-03-05T22:10:01.320Z,21.73
2023-03-05T22:13:12.402Z,21.72
2023-03-05T22:15:42.773Z,21.71
2023-03-05T22:18:09.766Z,21.73
2023-03-05T22:20:36.566Z,21.76
2023-03-05T22:23:03.952Z,21.68
2023-03-05T22:25:32.745Z,21.73
2023-03-05T22:27:59.461Z,21.75
2023-03-05T22:30:26.062Z,21.70
2023-03-05T22:32:53.413Z,21.71
2023-03-05T22:35:20.069Z,21.73
2023-03-05T22:37:46.947Z,21.69
2023-03-05T22:40:15.013Z,21.69
2023-03-05T22:42:41.720Z,21.73
2023-03-05T22:45:08.992Z,21.77
2023-03-05T22:47:35.633Z,21.70
2023-03-05T22:50:02.278Z,21.76
2023-03-05T22:52:28.859Z,21.71
2023-03-05T22:54:56.088Z,21.72
2023-03-05T22:57:22.735Z,21.72
2023-03-05T22:59:49.865Z,21.72
2023-03-05T23:02:17.086Z,21.70
2023-03-05T23:04:52.633Z,21.75
2023-03-05T23:07:20.985Z,21.75
2023-03-05T23:09:55.021Z,21.77
2023-03-05T23:12:21.894Z,21.72
2023-03-05T23:14:48.522Z,21.76
2023-03-05T23:17:15.242Z,21.78
2023-03-05T23:19:41.909Z,21.77
2023-03-05T23:22:09.152Z,21.78
2023-03-05T23:24:35.794Z,21.78
2023-03-05T23:27:05.231Z,21.77
2023-03-05T23:30:16.617Z,21.78
2023-03-05T23:32:52.948Z,21.79
2023-03-05T23:35:20.907Z,21.76
2023-03-05T23:37:47.652Z,21.76
2023-03-05T23:40:17.027Z,21.76
2023-03-05T23:42:43.816Z,21.76
2023-03-05T23:45:12.338Z,21.76
2023-03-05T23:47:39.185Z,21.77
2023-03-05T23:50:08.569Z,21.73
2023-03-05T23:52:35.135Z,21.73
2023-03-05T23:55:01.765Z,21.75
2023-03-05T23:57:28.443Z,21.71
2023-03-05T23:59:55.085Z,21.69
